Aviation Digital Data Service (ADDS)

Output produced by METARs form (2257 UTC 23 March 2019)
found at http://www.aviationweather.gov/metar/data/
 
Forecast for: NLWW (HIHIFO ILE WALLI, WS)
Text: TAF NLWW 231700Z 2318/2418 12006KT 9999 SCT020 BKN040
Forecast period: 1800 UTC 23 March 2019 to 1800 UTC 24 March 2019
Forecast type: FROM: standard forecast or significant change
Winds: from the ESE (120 degrees) at 7 MPH (6 knots; 3.1 m/s)
Visibility: 6 or more miles 10+ km)
Ceiling: 4000 feet AGL
Clouds: scattered clouds at 2000 feet AGL
broken clouds at 4000 feet AGL
Weather: no significant weather forecast for this period
Text: TEMPO 2318/2418 4000 SHRA SCT025CB
Forecast period: 1800 UTC 23 March 2019 to 1800 UTC 24 March 2019
Forecast type: TEMPORARY: The following changes expected for less than half the time period
Visibility: 2.49 miles (4.01 km)
Ceiling: at least 12,000 feet AGL
Clouds: scattered clouds at 2500 feet AGL
Weather: SHRA  (rain showers)
Text: PROB30
Forecast period: 1800 to 2100 UTC 23 March 2019
Forecast type: TEMPORARY: The following changes expected for less than half the time period
Visibility: 0.62 miles (1.00 km)
Ceiling: 900 feet AGL
Clouds: broken clouds at 900 feet AGL
scattered clouds at 1800 feet AGL
Weather: TSRA  (rain associated with thunderstorm(s))